Nix, Texas
Current Conditions -  °F | °C
As of 11:55 PM on Friday 19 Dec 2014 (Local Time) from KLZZ Reporting Station
Overcast Overcast  
Wind Chill: 45°   Ceiling: 1500
Heat Index: 45°   Visibility: 10mi
Dew Point: 44°   Wind: 0mph
Humidity: 95%   Direction: NA
Pressure: 30.2"   Gusts: NA
Location:  31.1064°N, 98.2303°W
Report Text: KLZZ 200555Z AUTO 00000KT 10SM SCT007 OVC015 07/07 A3020 RMK AO2 T00730065 10092 20070 401020068
Loading
Personal Weather Stations






























Interactive Weather Map New forecast layout! Learn more

10-Day Weather Forecast

Advertisements
Track Severe Weather on mobile